createdAt,value
2018-10-12T00:06:04.188Z,30.03
2018-10-12T00:16:05.451Z,31.70
2018-10-12T00:26:06.750Z,30.73
2018-10-12T00:36:08.022Z,32.70
2018-10-12T00:46:09.270Z,30.93
2018-10-12T00:56:10.511Z,31.97
2018-10-12T01:06:11.755Z,32.70
2018-10-12T01:16:13.753Z,35.93
2018-10-12T01:26:15.777Z,34.87
2018-10-12T01:36:17.810Z,33.33
2018-10-12T01:46:19.847Z,34.23
2018-10-12T01:56:21.114Z,30.93
2018-10-12T02:06:22.397Z,33.63
2018-10-12T02:16:23.660Z,32.03
2018-10-12T02:26:24.922Z,32.03
2018-10-12T02:36:26.258Z,35.17
2018-10-12T02:46:27.505Z,34.37
2018-10-12T02:56:28.751Z,32.70
2018-10-12T03:06:29.979Z,35.80
2018-10-12T03:16:31.256Z,35.03
2018-10-12T03:26:32.574Z,33.33
2018-10-12T03:36:33.862Z,33.60
2018-10-12T03:46:35.143Z,32.00
2018-10-12T03:56:37.234Z,32.17
2018-10-12T04:06:38.579Z,34.37
2018-10-12T04:16:39.861Z,32.90
2018-10-12T04:26:41.185Z,34.93
2018-10-12T04:36:42.460Z,36.67
2018-10-12T04:46:43.698Z,35.33
2018-10-12T04:56:44.951Z,34.87
2018-10-12T05:06:46.182Z,37.00
2018-10-12T05:16:47.439Z,35.93
2018-10-12T05:26:48.711Z,34.73
2018-10-12T05:36:49.973Z,38.70
2018-10-12T05:46:51.260Z,36.60
2018-10-12T05:56:52.551Z,39.60
2018-10-12T06:06:53.839Z,36.07
2018-10-12T06:16:55.119Z,36.87
2018-10-12T06:26:56.452Z,36.07
2018-10-12T06:36:57.684Z,36.37
2018-10-12T06:46:59.703Z,32.77
2018-10-12T06:57:00.938Z,32.20
2018-10-12T07:07:02.218Z,30.43
2018-10-12T07:17:03.482Z,31.93
2018-10-12T07:27:04.763Z,31.97
2018-10-12T07:37:06.177Z,29.67
2018-10-12T07:47:08.293Z,28.63
2018-10-12T07:57:09.647Z,28.00
2018-10-12T08:07:11.721Z,25.40
2018-10-12T08:17:13.083Z,23.93
2018-10-12T08:27:15.137Z,24.10
2018-10-12T08:37:16.445Z,23.27
2018-10-12T08:47:17.699Z,22.47
2018-10-12T08:57:18.963Z,18.95
2018-10-12T09:07:20.251Z,19.58
2018-10-12T09:17:21.567Z,18.92
2018-10-12T09:27:22.854Z,20.15
2018-10-12T09:37:24.135Z,18.50
2018-10-12T09:47:25.410Z,18.92
2018-10-12T09:57:26.709Z,18.98
2018-10-12T10:07:27.991Z,19.65
2018-10-12T10:17:29.256Z,21.40
2018-10-12T10:27:30.636Z,23.13
2018-10-12T10:37:31.934Z,20.73
2018-10-12T10:47:33.794Z,21.30
2018-10-12T10:57:36.910Z,20.67
2018-10-12T11:07:38.992Z,21.57
2018-10-12T11:17:43.585Z,21.10
2018-10-12T11:27:44.865Z,20.83
2018-10-12T11:37:46.155Z,20.10
2018-10-12T11:47:47.502Z,19.57
2018-10-12T11:57:48.800Z,19.53
2018-10-12T12:07:50.854Z,19.83
2018-10-12T12:17:52.121Z,21.90
2018-10-12T12:27:54.161Z,23.00
2018-10-12T12:37:56.194Z,23.47
2018-10-12T12:47:57.674Z,22.23
2018-10-12T12:57:59.602Z,23.50
2018-10-12T13:08:00.888Z,21.43
2018-10-12T13:18:02.400Z,22.90
2018-10-12T13:28:03.739Z,24.93
2018-10-12T13:38:05.174Z,22.97
2018-10-12T13:48:06.428Z,21.63
2018-10-12T13:58:07.803Z,23.83
2018-10-12T14:08:09.103Z,23.53
2018-10-12T14:18:10.446Z,22.40
2018-10-12T14:28:12.510Z,24.13
2018-10-12T14:38:13.882Z,24.03
2018-10-12T14:48:15.321Z,25.23
2018-10-12T14:58:18.140Z,23.47
2018-10-12T15:08:19.456Z,23.23
2018-10-12T15:18:20.912Z,23.97
2018-10-12T15:28:22.547Z,24.67
2018-10-12T15:38:23.971Z,25.03
2018-10-12T15:48:25.246Z,24.83
2018-10-12T15:58:26.606Z,26.60
2018-10-12T16:08:27.863Z,27.47
2018-10-12T16:18:29.150Z,26.20
2018-10-12T16:28:31.462Z,30.13
2018-10-12T16:38:32.746Z,29.63
2018-10-12T16:48:34.100Z,32.37
2018-10-12T16:58:35.342Z,32.63
2018-10-12T17:08:37.210Z,32.57
2018-10-12T17:18:38.665Z,32.60
2018-10-12T17:28:39.971Z,35.57
2018-10-12T17:38:41.247Z,36.30
2018-10-12T17:48:43.278Z,34.53
2018-10-12T17:58:44.604Z,37.13
2018-10-12T18:08:46.439Z,34.97
2018-10-12T18:18:48.360Z,37.07
2018-10-12T18:28:50.296Z,36.83
2018-10-12T18:38:52.223Z,38.07
2018-10-12T18:48:55.612Z,41.77
2018-10-12T18:58:57.538Z,39.33
2018-10-12T19:08:59.505Z,42.30
2018-10-12T19:19:00.864Z,41.77
2018-10-12T19:29:03.238Z,42.73
2018-10-12T19:39:04.538Z,41.23
2018-10-12T19:49:05.776Z,43.30
2018-10-12T19:59:07.825Z,41.87
2018-10-12T20:09:10.132Z,41.13
2018-10-12T20:19:11.800Z,40.77
2018-10-12T20:29:13.603Z,43.33
2018-10-12T20:39:15.029Z,45.27
2018-10-12T20:49:16.614Z,44.07
2018-10-12T20:59:17.997Z,41.30
2018-10-12T21:09:19.258Z,42.23
2018-10-12T21:19:20.790Z,41.30
2018-10-12T21:29:22.053Z,42.87
2018-10-12T21:39:23.314Z,41.63
2018-10-12T21:49:25.784Z,40.97
2018-10-12T21:59:27.346Z,40.53
2018-10-12T22:09:28.684Z,41.33
2018-10-12T22:19:29.954Z,41.23
2018-10-12T22:29:31.220Z,42.13
2018-10-12T22:39:32.470Z,41.90
2018-10-12T22:49:33.749Z,40.57
2018-10-12T22:59:35.083Z,42.23
2018-10-12T23:09:36.314Z,42.70
2018-10-12T23:19:38.327Z,39.20
2018-10-12T23:29:39.729Z,41.37
2018-10-12T23:39:40.970Z,41.77
2018-10-12T23:49:42.230Z,39.37
2018-10-12T23:59:43.550Z,39.47
